Time;durP1;ratioP1;P1;durP2;ratioP2;P2;SDS_P1;SDS_P2;PMS_P1;PMS_P2;Temp;Humidity;BMP_temperature;BMP_pressure;BME280_temperature;BME280_humidity;BME280_pressure;Samples;Min_cycle;Max_cycle;Signal;HPM_P1;HPM_P2
2023/10/22 00:02:02;;;;;;;0.00;0.00;;;;;;;;;;4996618;28;20248;-82
2023/10/22 00:04:27;;;;;;;0.00;0.00;;;;;;;;;;4997851;28;20185;-82
2023/10/22 00:06:52;;;;;;;0.00;0.00;;;;;;;;;;4997205;28;20528;-82
2023/10/22 00:09:17;;;;;;;0.00;0.00;;;;;;;;;;4995531;28;20604;-82
2023/10/22 00:11:43;;;;;;;0.00;0.00;;;;;;;;;;4997103;28;20181;-82
2023/10/22 00:14:08;;;;;;;0.00;0.00;;;;;;;;;;4996073;28;20217;-82
2023/10/22 00:16:33;;;;;;;0.00;0.00;;;;;;;;;;4995107;28;20224;-81
2023/10/22 00:18:58;;;;;;;0.00;0.00;;;;;;;;;;4995635;28;20197;-82
2023/10/22 00:21:23;;;;;;;0.00;0.00;;;;;;;;;;4995389;28;20193;-81
2023/10/22 00:23:49;;;;;;;0.00;0.00;;;;;;;;;;4996694;28;20240;-82
2023/10/22 00:26:14;;;;;;;0.00;0.00;;;;;;;;;;4995243;28;20553;-82
2023/10/22 00:28:39;;;;;;;0.00;0.00;;;;;;;;;;4995032;28;20701;-82
2023/10/22 00:31:04;;;;;;;0.00;0.00;;;;;;;;;;4995262;28;20273;-81
2023/10/22 00:33:29;;;;;;;0.00;0.00;;;;;;;;;;4994978;28;20259;-81
2023/10/22 00:35:58;;;;;;;0.00;0.00;;;;;;;;;;4996389;28;20704;-82
2023/10/22 00:38:23;;;;;;;0.00;0.00;;;;;;;;;;4994563;28;20208;-82
2023/10/22 00:40:49;;;;;;;0.00;0.00;;;;;;;;;;5010839;28;20188;-82
2023/10/22 00:43:14;;;;;;;0.00;0.00;;;;;;;;;;4995039;28;20664;-82
2023/10/22 00:45:39;;;;;;;0.00;0.00;;;;;;;;;;4995073;28;20284;-82
2023/10/22 00:48:05;;;;;;;0.00;0.00;;;;;;;;;;4994407;28;20216;-82
2023/10/22 00:50:30;;;;;;;0.00;0.00;;;;;;;;;;4995882;28;20220;-82
2023/10/22 00:52:56;;;;;;;0.00;0.00;;;;;;;;;;4996550;28;20196;-82
2023/10/22 00:55:21;;;;;;;0.00;0.00;;;;;;;;;;5007255;28;20244;-82
2023/10/22 00:57:47;;;;;;;0.00;0.00;;;;;;;;;;5023164;28;20213;-81
2023/10/22 01:00:13;;;;;;;0.00;0.00;;;;;;;;;;5007620;28;20649;-82
2023/10/22 01:02:38;;;;;;;0.00;0.00;;;;;;;;;;4997455;28;20181;-82
2023/10/22 01:05:05;;;;;;;0.00;0.00;;;;;;;;;;4998068;28;20181;-82
2023/10/22 01:07:30;;;;;;;0.00;0.00;;;;;;;;;;5013144;28;20219;-82
2023/10/22 01:09:56;;;;;;;0.00;0.00;;;;;;;;;;4996643;28;20531;-82
2023/10/22 01:12:21;;;;;;;0.00;0.00;;;;;;;;;;4996387;28;20615;-81
2023/10/22 01:14:46;;;;;;;0.00;0.00;;;;;;;;;;4995058;28;20173;-82
2023/10/22 01:17:11;;;;;;;0.00;0.00;;;;;;;;;;4995742;28;20181;-82
2023/10/22 01:19:37;;;;;;;0.00;0.00;;;;;;;;;;4993862;28;20572;-81
2023/10/22 01:22:03;;;;;;;0.00;0.00;;;;;;;;;;4994574;28;20200;-81
2023/10/22 01:24:31;;;;;;;0.00;0.00;;;;;;;;;;4995786;28;20235;-81
2023/10/22 01:26:56;;;;;;;0.00;0.00;;;;;;;;;;4998406;28;20208;-82
2023/10/22 01:29:21;;;;;;;0.03;0.03;;;;;;;;;;4999594;28;20201;-81
2023/10/22 01:31:46;;;;;;;0.00;0.00;;;;;;;;;;5000594;28;20178;-81
2023/10/22 01:34:12;;;;;;;0.00;0.00;;;;;;;;;;5000217;28;20195;-82
2023/10/22 01:36:37;;;;;;;0.00;0.00;;;;;;;;;;4998726;28;20177;-82
2023/10/22 01:39:02;;;;;;;0.00;0.00;;;;;;;;;;4999048;28;20205;-82
2023/10/22 01:41:27;;;;;;;0.00;0.00;;;;;;;;;;5000029;28;20213;-82
2023/10/22 01:43:53;;;;;;;0.00;0.00;;;;;;;;;;5014900;28;20177;-81
2023/10/22 01:46:19;;;;;;;0.00;0.00;;;;;;;;;;4998459;28;20213;-82
2023/10/22 01:48:44;;;;;;;0.00;0.00;;;;;;;;;;5014576;28;20689;-82
2023/10/22 01:51:09;;;;;;;0.00;0.00;;;;;;;;;;5015035;28;20181;-82
2023/10/22 01:53:34;;;;;;;0.00;0.00;;;;;;;;;;4999646;28;20564;-81
2023/10/22 01:55:59;;;;;;;0.00;0.00;;;;;;;;;;4999534;28;20173;-82
2023/10/22 01:58:24;;;;;;;0.00;0.00;;;;;;;;;;4997691;28;20271;-82
2023/10/22 02:00:59;;;;;;;0.00;0.00;;;;;;;;;;5000057;28;20669;-82
2023/10/22 02:03:24;;;;;;;0.00;0.00;;;;;;;;;;4999437;28;20180;-82
2023/10/22 02:05:50;;;;;;;0.00;0.00;;;;;;;;;;5014788;28;20836;-82
2023/10/22 02:08:15;;;;;;;0.00;0.00;;;;;;;;;;5014222;28;20209;-81
2023/10/22 02:10:40;;;;;;;0.00;0.00;;;;;;;;;;4999995;28;20184;-82
2023/10/22 02:13:05;;;;;;;0.00;0.00;;;;;;;;;;4996946;28;20665;-82
2023/10/22 02:15:31;;;;;;;0.00;0.00;;;;;;;;;;4998251;28;20259;-82
2023/10/22 02:17:56;;;;;;;0.00;0.00;;;;;;;;;;4998745;28;20288;-82
2023/10/22 02:20:21;;;;;;;0.00;0.00;;;;;;;;;;4999047;28;20259;-82
2023/10/22 02:22:46;;;;;;;0.00;0.00;;;;;;;;;;4998547;28;20177;-81
2023/10/22 02:25:12;;;;;;;0.00;0.00;;;;;;;;;;4997782;28;20181;-82
2023/10/22 02:27:37;;;;;;;0.00;0.00;;;;;;;;;;4999258;28;20205;-82
2023/10/22 02:30:02;;;;;;;0.00;0.00;;;;;;;;;;4997649;28;20177;-82
2023/10/22 02:32:27;;;;;;;0.00;0.00;;;;;;;;;;4998979;28;20173;-82
2023/10/22 02:34:53;;;;;;;0.00;0.00;;;;;;;;;;5013382;28;20263;-82
2023/10/22 02:37:19;;;;;;;0.00;0.00;;;;;;;;;;5013506;28;20186;-82
2023/10/22 02:39:44;;;;;;;0.00;0.00;;;;;;;;;;4997095;28;20197;-81
2023/10/22 02:42:10;;;;;;;0.00;0.00;;;;;;;;;;4998612;28;20177;-82
2023/10/22 02:44:35;;;;;;;0.00;0.00;;;;;;;;;;4997309;28;20592;-81
2023/10/22 02:47:01;;;;;;;0.00;0.00;;;;;;;;;;4997837;28;20239;-82
2023/10/22 02:49:26;;;;;;;0.00;0.00;;;;;;;;;;5013467;28;20181;-82
2023/10/22 02:51:52;;;;;;;0.00;0.00;;;;;;;;;;4998096;28;20178;-82
2023/10/22 02:54:17;;;;;;;0.00;0.00;;;;;;;;;;4996842;28;20173;-82
2023/10/22 02:56:42;;;;;;;0.00;0.00;;;;;;;;;;4997182;28;20188;-82
2023/10/22 02:59:08;;;;;;;0.00;0.00;;;;;;;;;;4996726;28;20228;-82
2023/10/22 03:01:33;;;;;;;0.00;0.00;;;;;;;;;;4994514;28;20208;-82
2023/10/22 03:03:58;;;;;;;0.00;0.00;;;;;;;;;;4994742;28;20181;-82
2023/10/22 03:06:24;;;;;;;0.00;0.00;;;;;;;;;;4995943;28;20181;-82
2023/10/22 03:08:49;;;;;;;0.00;0.00;;;;;;;;;;4994501;28;20193;-82
2023/10/22 03:11:16;;;;;;;0.00;0.00;;;;;;;;;;4996263;28;20240;-81
2023/10/22 03:13:41;;;;;;;0.00;0.00;;;;;;;;;;5009556;28;20237;-81
2023/10/22 03:16:07;;;;;;;0.00;0.00;;;;;;;;;;5000403;28;20212;-81
2023/10/22 03:18:32;;;;;;;0.00;0.00;;;;;;;;;;4993075;28;20204;-81
2023/10/22 03:20:58;;;;;;;0.00;0.00;;;;;;;;;;5000171;28;20181;-82
2023/10/22 03:23:23;;;;;;;0.00;0.00;;;;;;;;;;4998477;28;20267;-82
2023/10/22 03:25:48;;;;;;;0.00;0.00;;;;;;;;;;4998932;28;20173;-82
2023/10/22 03:28:13;;;;;;;0.00;0.00;;;;;;;;;;4996972;28;20304;-82
2023/10/22 03:30:38;;;;;;;0.00;0.00;;;;;;;;;;4997773;28;20630;-82
2023/10/22 03:33:04;;;;;;;0.00;0.00;;;;;;;;;;4997082;28;20196;-82
2023/10/22 03:35:30;;;;;;;0.00;0.00;;;;;;;;;;4998055;28;20324;-82
2023/10/22 03:37:55;;;;;;;0.00;0.00;;;;;;;;;;4998178;28;20223;-82
2023/10/22 03:40:20;;;;;;;0.00;0.00;;;;;;;;;;4997569;28;20661;-81
2023/10/22 03:42:46;;;;;;;0.00;0.00;;;;;;;;;;4996411;28;20192;-81
2023/10/22 03:45:12;;;;;;;0.00;0.00;;;;;;;;;;4998002;28;20243;-81
2023/10/22 03:47:37;;;;;;;0.30;0.30;;;;;;;;;;4995525;28;20212;-82
2023/10/22 03:50:03;;;;;;;0.00;0.00;;;;;;;;;;4996072;28;20264;-81
2023/10/22 03:52:28;;;;;;;0.00;0.00;;;;;;;;;;4996104;28;20193;-82
2023/10/22 03:54:53;;;;;;;0.00;0.00;;;;;;;;;;4995503;28;20263;-81
2023/10/22 03:57:18;;;;;;;0.13;0.07;;;;;;;;;;4995831;28;20267;-81
2023/10/22 03:59:43;;;;;;;0.20;0.20;;;;;;;;;;4996896;28;20526;-81
2023/10/22 04:02:08;;;;;;;0.53;0.40;;;;;;;;;;4996736;28;20188;-81
2023/10/22 04:04:34;;;;;;;0.20;0.20;;;;;;;;;;4996862;28;20228;-82
2023/10/22 04:06:59;;;;;;;0.00;0.00;;;;;;;;;;4995001;28;20328;-82
2023/10/22 04:09:24;;;;;;;0.07;0.07;;;;;;;;;;4994969;28;20200;-81
2023/10/22 04:11:49;;;;;;;0.30;0.30;;;;;;;;;;4994776;28;20223;-82
2023/10/22 04:14:16;;;;;;;0.00;0.00;;;;;;;;;;4993947;28;20180;-81
2023/10/22 04:16:41;;;;;;;1.13;0.37;;;;;;;;;;4996907;28;20646;-81
2023/10/22 04:19:06;;;;;;;0.00;0.00;;;;;;;;;;4996515;28;20197;-81
2023/10/22 04:21:31;;;;;;;1.23;0.47;;;;;;;;;;4994909;28;20181;-81
2023/10/22 04:23:57;;;;;;;1.90;0.50;;;;;;;;;;4994313;28;20174;-81
2023/10/22 04:26:22;;;;;;;0.20;0.20;;;;;;;;;;5010926;28;20269;-81
2023/10/22 04:28:47;;;;;;;0.83;0.73;;;;;;;;;;4994475;28;20311;-81
2023/10/22 04:31:13;;;;;;;0.10;0.10;;;;;;;;;;4994392;28;20177;-81
2023/10/22 04:33:38;;;;;;;0.90;0.13;;;;;;;;;;4994014;28;20173;-81
2023/10/22 04:36:03;;;;;;;0.00;0.00;;;;;;;;;;4994360;28;20181;-81
2023/10/22 04:38:29;;;;;;;0.00;0.00;;;;;;;;;;4995853;28;20247;-81
2023/10/22 04:40:54;;;;;;;0.00;0.00;;;;;;;;;;4993851;28;20280;-81
2023/10/22 04:43:21;;;;;;;0.60;0.10;;;;;;;;;;4994706;28;20181;-80
2023/10/22 04:45:46;;;;;;;0.00;0.00;;;;;;;;;;4993683;28;20526;-81
2023/10/22 04:48:12;;;;;;;0.10;0.10;;;;;;;;;;4993659;28;20211;-80
2023/10/22 04:50:38;;;;;;;0.00;0.00;;;;;;;;;;5009909;28;20196;-81
2023/10/22 04:53:03;;;;;;;0.00;0.00;;;;;;;;;;4994700;28;20207;-81
2023/10/22 04:55:28;;;;;;;0.87;0.40;;;;;;;;;;4993189;28;20176;-81
2023/10/22 04:57:55;;;;;;;0.00;0.00;;;;;;;;;;4993026;28;20255;-81
2023/10/22 05:00:20;;;;;;;0.00;0.00;;;;;;;;;;4992786;28;20187;-81
2023/10/22 05:02:45;;;;;;;0.00;0.00;;;;;;;;;;4992583;28;20177;-81
2023/10/22 05:05:11;;;;;;;0.10;0.10;;;;;;;;;;4993123;28;20192;-81
2023/10/22 05:07:37;;;;;;;3.13;0.80;;;;;;;;;;4992838;28;20205;-81
2023/10/22 05:10:02;;;;;;;0.43;0.40;;;;;;;;;;4994469;28;20168;-80
2023/10/22 05:12:27;;;;;;;0.30;0.10;;;;;;;;;;4994024;28;20584;-81
2023/10/22 05:14:52;;;;;;;3.40;0.67;;;;;;;;;;4992671;28;20184;-81
2023/10/22 05:17:18;;;;;;;0.07;0.07;;;;;;;;;;4993714;28;20579;-81
2023/10/22 05:19:43;;;;;;;0.10;0.10;;;;;;;;;;4992795;28;20189;-81
2023/10/22 05:22:08;;;;;;;0.03;0.00;;;;;;;;;;4994096;28;20260;-81
2023/10/22 05:24:33;;;;;;;1.17;1.17;;;;;;;;;;4993863;28;20176;-81
2023/10/22 05:26:59;;;;;;;1.23;0.27;;;;;;;;;;4993990;28;20189;-81
2023/10/22 05:29:24;;;;;;;0.00;0.00;;;;;;;;;;4993736;28;20244;-81
2023/10/22 05:31:49;;;;;;;0.20;0.20;;;;;;;;;;4992845;28;20174;-81
2023/10/22 05:34:15;;;;;;;0.00;0.00;;;;;;;;;;4992188;28;20181;-81
2023/10/22 05:36:40;;;;;;;0.00;0.00;;;;;;;;;;4994137;28;20181;-81
2023/10/22 05:39:05;;;;;;;0.17;0.10;;;;;;;;;;4991997;28;20225;-81
2023/10/22 05:41:30;;;;;;;0.30;0.20;;;;;;;;;;5023295;22;20247;-78
2023/10/22 05:43:59;;;;;;;0.73;0.73;;;;;;;;;;5011538;28;20702;-78
2023/10/22 05:46:25;;;;;;;0.30;0.30;;;;;;;;;;5011808;28;20179;-77
2023/10/22 05:48:50;;;;;;;0.00;0.00;;;;;;;;;;4998553;28;20712;-78
2023/10/22 05:51:15;;;;;;;1.17;0.80;;;;;;;;;;4990846;28;20265;-77
2023/10/22 05:53:40;;;;;;;0.87;0.50;;;;;;;;;;4991913;28;20192;-78
2023/10/22 05:56:06;;;;;;;0.00;0.00;;;;;;;;;;4991901;28;20177;-78
2023/10/22 05:58:31;;;;;;;0.57;0.30;;;;;;;;;;4992118;28;20193;-78
2023/10/22 06:00:56;;;;;;;0.00;0.00;;;;;;;;;;4991867;28;20174;-78
2023/10/22 06:03:21;;;;;;;0.00;0.00;;;;;;;;;;4991563;28;20181;-78
2023/10/22 06:05:47;;;;;;;0.60;0.60;;;;;;;;;;4990585;28;20182;-78
2023/10/22 06:08:12;;;;;;;0.00;0.00;;;;;;;;;;4991656;28;20292;-78
2023/10/22 06:10:41;;;;;;;0.10;0.10;;;;;;;;;;4992465;28;20177;-75
2023/10/22 06:13:06;;;;;;;0.40;0.27;;;;;;;;;;4995100;28;20173;-75
2023/10/22 06:15:31;;;;;;;0.00;0.00;;;;;;;;;;4995285;28;20184;-75
2023/10/22 06:17:57;;;;;;;0.37;0.30;;;;;;;;;;4995177;28;20197;-75
2023/10/22 06:20:22;;;;;;;0.00;0.00;;;;;;;;;;4995153;28;20184;-75
2023/10/22 06:22:47;;;;;;;0.00;0.00;;;;;;;;;;4994964;28;20210;-75
2023/10/22 06:25:13;;;;;;;0.00;0.00;;;;;;;;;;4995141;28;20203;-75
2023/10/22 06:27:38;;;;;;;0.00;0.00;;;;;;;;;;4993494;28;20209;-75
2023/10/22 06:30:04;;;;;;;0.00;0.00;;;;;;;;;;4995100;28;20533;-75
2023/10/22 06:32:29;;;;;;;0.00;0.00;;;;;;;;;;4994858;28;20180;-75
2023/10/22 06:34:54;;;;;;;0.10;0.10;;;;;;;;;;4994858;28;20214;-75
2023/10/22 06:37:19;;;;;;;0.20;0.20;;;;;;;;;;4993471;28;20177;-77
2023/10/22 06:39:45;;;;;;;0.70;0.20;;;;;;;;;;4994715;28;20255;-78
2023/10/22 06:42:10;;;;;;;0.00;0.00;;;;;;;;;;4993519;28;20665;-78
2023/10/22 06:44:36;;;;;;;0.97;0.90;;;;;;;;;;4993480;28;20684;-77
2023/10/22 06:47:02;;;;;;;0.20;0.20;;;;;;;;;;4994610;28;20240;-77
2023/10/22 06:49:31;;;;;;;0.00;0.00;;;;;;;;;;4992330;28;20255;-79
2023/10/22 06:51:56;;;;;;;0.00;0.00;;;;;;;;;;4995976;28;20177;-77
2023/10/22 06:54:21;;;;;;;7.17;1.07;;;;;;;;;;4994987;28;20256;-77
2023/10/22 06:56:46;;;;;;;0.07;0.07;;;;;;;;;;4994978;28;20253;-77
2023/10/22 06:59:12;;;;;;;0.00;0.00;;;;;;;;;;4994619;28;20196;-75
2023/10/22 07:01:37;;;;;;;0.40;0.13;;;;;;;;;;4993293;28;20239;-75
2023/10/22 07:04:02;;;;;;;0.33;0.30;;;;;;;;;;4994229;28;20180;-75
2023/10/22 07:06:27;;;;;;;0.30;0.20;;;;;;;;;;4994264;28;20172;-76
2023/10/22 07:08:52;;;;;;;0.00;0.00;;;;;;;;;;4994248;28;20228;-75
2023/10/22 07:11:18;;;;;;;0.00;0.00;;;;;;;;;;4994265;28;20200;-75
2023/10/22 07:13:43;;;;;;;0.30;0.10;;;;;;;;;;4993984;28;20218;-75
2023/10/22 07:16:08;;;;;;;0.00;0.00;;;;;;;;;;4993037;28;20185;-75
2023/10/22 07:18:33;;;;;;;0.10;0.10;;;;;;;;;;4994120;28;20670;-75
2023/10/22 07:20:59;;;;;;;0.00;0.00;;;;;;;;;;4994263;28;20235;-75
2023/10/22 07:23:25;;;;;;;0.00;0.00;;;;;;;;;;4993565;28;20185;-75
2023/10/22 07:25:54;;;;;;;0.00;0.00;;;;;;;;;;4993980;28;20184;-75
2023/10/22 07:28:20;;;;;;;0.00;0.00;;;;;;;;;;4993836;28;20205;-75
2023/10/22 07:30:45;;;;;;;1.20;0.13;;;;;;;;;;4994021;28;20169;-75
2023/10/22 07:33:11;;;;;;;0.17;0.17;;;;;;;;;;4993731;28;20755;-75
2023/10/22 07:35:36;;;;;;;0.00;0.00;;;;;;;;;;4993916;28;20178;-75
2023/10/22 07:38:01;;;;;;;0.10;0.10;;;;;;;;;;4993716;28;20260;-75
2023/10/22 07:40:26;;;;;;;1.00;0.60;;;;;;;;;;4992553;28;20204;-75
2023/10/22 07:42:53;;;;;;;0.53;0.43;;;;;;;;;;4988744;28;20384;-75
2023/10/22 07:45:18;;;;;;;0.10;0.10;;;;;;;;;;4993473;28;20180;-75
2023/10/22 07:47:43;;;;;;;1.00;0.83;;;;;;;;;;4993293;28;20197;-75
2023/10/22 07:50:09;;;;;;;0.00;0.00;;;;;;;;;;4987515;28;20204;-75
2023/10/22 07:52:37;;;;;;;2.37;0.67;;;;;;;;;;4993119;28;20192;-75
2023/10/22 07:55:03;;;;;;;2.13;0.87;;;;;;;;;;4991804;28;20208;-75
2023/10/22 07:57:28;;;;;;;0.47;0.40;;;;;;;;;;4991782;28;20223;-75
2023/10/22 07:59:55;;;;;;;0.23;0.23;;;;;;;;;;4993320;28;20173;-75
2023/10/22 08:02:20;;;;;;;1.10;0.30;;;;;;;;;;4993190;28;20180;-75
2023/10/22 08:04:45;;;;;;;0.37;0.33;;;;;;;;;;4991781;28;20177;-75
2023/10/22 08:07:11;;;;;;;0.10;0.10;;;;;;;;;;4993107;28;20205;-75
2023/10/22 08:09:36;;;;;;;5.73;1.07;;;;;;;;;;4991443;28;20195;-75
2023/10/22 08:12:01;;;;;;;0.47;0.47;;;;;;;;;;4991486;28;20267;-76
2023/10/22 08:14:26;;;;;;;0.50;0.50;;;;;;;;;;4989235;28;20170;-76
2023/10/22 08:16:52;;;;;;;0.93;0.10;;;;;;;;;;4989837;28;20167;-76
2023/10/22 08:19:17;;;;;;;0.00;0.00;;;;;;;;;;4992804;28;20280;-76
2023/10/22 08:21:42;;;;;;;0.17;0.10;;;;;;;;;;4992909;28;20755;-76
2023/10/22 08:24:07;;;;;;;0.20;0.10;;;;;;;;;;4992627;28;20197;-76
2023/10/22 08:26:33;;;;;;;0.00;0.00;;;;;;;;;;4992706;28;20256;-76
2023/10/22 08:28:58;;;;;;;0.10;0.10;;;;;;;;;;4990324;28;20208;-76
2023/10/22 08:31:23;;;;;;;6.80;0.53;;;;;;;;;;4987973;28;20173;-76
2023/10/22 08:33:49;;;;;;;2.67;0.67;;;;;;;;;;4991563;28;20169;-76
2023/10/22 08:36:15;;;;;;;1.43;0.60;;;;;;;;;;4985972;28;20170;-76
2023/10/22 08:38:40;;;;;;;4.47;0.30;;;;;;;;;;4988775;28;20697;-76
2023/10/22 08:41:10;;;;;;;0.20;0.20;;;;;;;;;;5011290;23;20698;-84
2023/10/22 08:43:38;;;;;;;0.33;0.33;;;;;;;;;;5012724;28;20227;-84
2023/10/22 08:46:03;;;;;;;0.33;0.33;;;;;;;;;;5010507;28;20172;-83
2023/10/22 08:48:29;;;;;;;1.77;0.87;;;;;;;;;;5009946;28;20347;-83
2023/10/22 08:50:54;;;;;;;0.00;0.00;;;;;;;;;;5011892;28;20295;-83
2023/10/22 08:53:19;;;;;;;0.10;0.00;;;;;;;;;;5011616;28;20176;-83
2023/10/22 08:55:45;;;;;;;1.13;0.27;;;;;;;;;;5010650;28;20170;-83
2023/10/22 08:58:13;;;;;;;0.17;0.17;;;;;;;;;;5010810;28;20172;-83
2023/10/22 09:00:39;;;;;;;3.27;0.80;;;;;;;;;;5012140;28;20172;-82
2023/10/22 09:03:04;;;;;;;0.27;0.27;;;;;;;;;;5010375;28;20212;-81
2023/10/22 09:05:29;;;;;;;0.73;0.40;;;;;;;;;;5010590;28;20286;-83
2023/10/22 09:07:54;;;;;;;4.20;0.53;;;;;;;;;;5012074;28;20231;-82
2023/10/22 09:10:28;;;;;;;0.03;0.03;;;;;;;;;;5012054;28;20464;-83
2023/10/22 09:12:53;;;;;;;1.13;0.63;;;;;;;;;;5010332;28;20647;-82
2023/10/22 09:15:18;;;;;;;0.40;0.40;;;;;;;;;;5011808;28;20188;-82
2023/10/22 09:17:43;;;;;;;0.43;0.43;;;;;;;;;;5012329;28;20604;-82
2023/10/22 09:20:21;;;;;;;3.57;0.50;;;;;;;;;;5010857;28;20184;-82
2023/10/22 09:22:47;;;;;;;0.40;0.33;;;;;;;;;;5012429;28;20210;-84
2023/10/22 09:25:13;;;;;;;0.10;0.10;;;;;;;;;;5011048;28;20212;-86
2023/10/22 09:27:39;;;;;;;2.97;0.33;;;;;;;;;;5013016;28;20205;-85
2023/10/22 09:30:05;;;;;;;0.10;0.10;;;;;;;;;;5011455;28;20176;-82
2023/10/22 09:32:30;;;;;;;1.63;0.37;;;;;;;;;;5010891;28;20262;-85
2023/10/22 09:35:10;;;;;;;0.37;0.37;;;;;;;;;;5010778;28;20200;-84
2023/10/22 09:37:47;;;;;;;3.23;0.67;;;;;;;;;;5012083;28;20173;-83
2023/10/22 09:40:19;;;;;;;2.10;0.50;;;;;;;;;;5009229;28;20190;-83
2023/10/22 09:42:46;;;;;;;0.57;0.20;;;;;;;;;;5010286;28;20659;-83
2023/10/22 09:45:11;;;;;;;0.47;0.37;;;;;;;;;;5012300;28;20196;-84
2023/10/22 09:47:36;;;;;;;0.40;0.37;;;;;;;;;;5008309;28;20340;-82
2023/10/22 09:50:04;;;;;;;0.10;0.10;;;;;;;;;;5014600;28;20200;-82
2023/10/22 09:52:34;;;;;;;2.47;0.90;;;;;;;;;;5015445;28;20617;-83
2023/10/22 09:55:00;;;;;;;0.20;0.20;;;;;;;;;;5015778;28;20203;-82
2023/10/22 09:57:28;;;;;;;0.63;0.40;;;;;;;;;;5016159;28;20216;-83
2023/10/22 09:59:53;;;;;;;0.10;0.00;;;;;;;;;;5015750;28;20600;-83
2023/10/22 10:02:20;;;;;;;0.00;0.00;;;;;;;;;;5015603;28;20180;-82
2023/10/22 10:04:48;;;;;;;0.23;0.20;;;;;;;;;;5014766;28;20204;-82
2023/10/22 10:07:13;;;;;;;0.00;0.00;;;;;;;;;;5014619;28;20291;-82
2023/10/22 10:09:41;;;;;;;0.30;0.30;;;;;;;;;;5015024;28;20204;-82
2023/10/22 10:12:12;;;;;;;0.30;0.30;;;;;;;;;;5014938;28;20184;-82
2023/10/22 10:14:46;;;;;;;0.40;0.30;;;;;;;;;;5015009;28;20188;-82
2023/10/22 10:17:12;;;;;;;0.00;0.00;;;;;;;;;;5014779;28;20716;-82
2023/10/22 10:19:38;;;;;;;0.20;0.20;;;;;;;;;;5013486;28;20184;-82
2023/10/22 10:22:03;;;;;;;0.30;0.30;;;;;;;;;;5013513;28;20568;-81
2023/10/22 10:24:32;;;;;;;0.83;0.10;;;;;;;;;;5014191;28;20200;-82
2023/10/22 10:26:57;;;;;;;0.40;0.10;;;;;;;;;;5013489;28;20195;-82
2023/10/22 10:29:27;;;;;;;0.50;0.50;;;;;;;;;;5013277;28;20185;-82
2023/10/22 10:31:53;;;;;;;0.20;0.20;;;;;;;;;;5013241;28;20647;-82
2023/10/22 10:34:24;;;;;;;4.23;0.20;;;;;;;;;;5012724;28;20196;-82
2023/10/22 10:36:50;;;;;;;0.13;0.13;;;;;;;;;;5014484;28;20173;-83
2023/10/22 10:39:35;;;;;;;0.87;0.50;;;;;;;;;;5013187;28;20227;-82
2023/10/22 10:42:00;;;;;;;0.50;0.17;;;;;;;;;;5014296;28;20192;-82
2023/10/22 10:44:28;;;;;;;0.37;0.30;;;;;;;;;;5014142;28;20188;-82
2023/10/22 10:46:53;;;;;;;0.10;0.10;;;;;;;;;;5012957;28;20234;-82
2023/10/22 10:49:38;;;;;;;0.50;0.33;;;;;;;;;;5015611;28;20582;-83
2023/10/22 10:52:03;;;;;;;0.10;0.10;;;;;;;;;;5016712;28;20189;-83
2023/10/22 10:54:28;;;;;;;1.13;0.40;;;;;;;;;;5016251;28;20255;-83
2023/10/22 10:56:55;;;;;;;0.33;0.33;;;;;;;;;;5016984;28;20180;-83
2023/10/22 10:59:40;;;;;;;0.00;0.00;;;;;;;;;;5016466;28;20517;-83
2023/10/22 11:02:10;;;;;;;0.97;0.50;;;;;;;;;;5017387;28;20181;-83
2023/10/22 11:04:36;;;;;;;0.83;0.60;;;;;;;;;;5015512;28;20695;-83
2023/10/22 11:07:02;;;;;;;0.20;0.20;;;;;;;;;;5016703;28;20173;-83
2023/10/22 11:09:27;;;;;;;1.07;0.50;;;;;;;;;;5015271;28;20172;-83
2023/10/22 11:11:56;;;;;;;1.17;0.53;;;;;;;;;;5016562;28;20203;-83
2023/10/22 11:14:21;;;;;;;0.60;0.07;;;;;;;;;;5015076;28;20200;-83
2023/10/22 11:16:54;;;;;;;2.93;0.60;;;;;;;;;;5016314;28;20173;-84
2023/10/22 11:19:20;;;;;;;0.00;0.00;;;;;;;;;;5013699;28;20184;-83
2023/10/22 11:21:45;;;;;;;1.90;0.30;;;;;;;;;;5014710;28;20169;-83
2023/10/22 11:24:11;;;;;;;0.10;0.10;;;;;;;;;;5016288;28;20197;-83
2023/10/22 11:26:36;;;;;;;0.00;0.00;;;;;;;;;;5032773;28;20216;-83
2023/10/22 11:29:01;;;;;;;0.47;0.47;;;;;;;;;;5017337;28;20195;-83
2023/10/22 11:31:26;;;;;;;0.10;0.10;;;;;;;;;;5014270;28;20183;-83
2023/10/22 11:33:52;;;;;;;0.47;0.37;;;;;;;;;;5013572;28;20192;-83
2023/10/22 11:36:17;;;;;;;0.20;0.20;;;;;;;;;;5015226;28;20223;-83
2023/10/22 11:38:42;;;;;;;0.47;0.23;;;;;;;;;;5013924;28;20696;-83
2023/10/22 11:41:08;;;;;;;0.53;0.30;;;;;;;;;;5030327;22;20236;-85
2023/10/22 11:43:36;;;;;;;0.00;0.00;;;;;;;;;;4975103;28;20184;-85
2023/10/22 11:46:01;;;;;;;3.13;0.60;;;;;;;;;;4985128;28;20174;-85
2023/10/22 11:48:27;;;;;;;0.10;0.10;;;;;;;;;;4977519;28;20575;-86
2023/10/22 11:50:59;;;;;;;0.00;0.00;;;;;;;;;;4973746;28;20237;-85
2023/10/22 11:53:39;;;;;;;0.17;0.10;;;;;;;;;;4988846;28;20182;-85
2023/10/22 11:56:04;;;;;;;0.00;0.00;;;;;;;;;;4973925;28;20174;-85
2023/10/22 11:58:29;;;;;;;0.10;0.10;;;;;;;;;;4988961;28;20174;-85
2023/10/22 12:00:55;;;;;;;0.10;0.10;;;;;;;;;;4973977;28;20180;-85
2023/10/22 12:03:20;;;;;;;0.00;0.00;;;;;;;;;;4973143;28;20228;-85
2023/10/22 12:05:45;;;;;;;0.30;0.30;;;;;;;;;;4973907;28;20184;-85
2023/10/22 12:08:11;;;;;;;0.10;0.10;;;;;;;;;;4988030;28;20213;-85
2023/10/22 12:10:36;;;;;;;0.10;0.10;;;;;;;;;;4976182;28;20265;-85
2023/10/22 12:13:02;;;;;;;7.80;0.27;;;;;;;;;;4973370;28;20205;-85
2023/10/22 12:15:28;;;;;;;0.90;0.20;;;;;;;;;;4973551;28;20719;-85
2023/10/22 12:17:53;;;;;;;0.63;0.37;;;;;;;;;;4972152;28;20312;-85
2023/10/22 12:20:20;;;;;;;0.83;0.23;;;;;;;;;;4973866;28;20186;-85
2023/10/22 12:22:45;;;;;;;1.67;0.87;;;;;;;;;;4995466;28;20201;-84
2023/10/22 12:25:10;;;;;;;1.07;0.50;;;;;;;;;;4994689;28;20192;-85
2023/10/22 12:27:35;;;;;;;0.87;0.73;;;;;;;;;;4993081;28;20202;-85
2023/10/22 12:30:02;;;;;;;0.20;0.20;;;;;;;;;;4992393;28;20259;-85
2023/10/22 12:32:27;;;;;;;0.20;0.17;;;;;;;;;;4988572;28;20264;-86
2023/10/22 12:34:53;;;;;;;0.10;0.10;;;;;;;;;;4988729;28;20272;-86
2023/10/22 12:37:18;;;;;;;0.30;0.20;;;;;;;;;;4989552;28;20548;-86
2023/10/22 12:39:44;;;;;;;0.57;0.30;;;;;;;;;;4988318;28;20178;-86
2023/10/22 12:42:10;;;;;;;0.10;0.10;;;;;;;;;;4974774;28;20205;-86
2023/10/22 12:44:35;;;;;;;0.00;0.00;;;;;;;;;;4988048;28;20556;-87
2023/10/22 12:47:00;;;;;;;0.00;0.00;;;;;;;;;;4973046;28;20192;-86
2023/10/22 12:49:35;;;;;;;0.40;0.40;;;;;;;;;;4988001;28;20174;-85
2023/10/22 12:52:00;;;;;;;0.20;0.17;;;;;;;;;;4971875;28;20248;-86
2023/10/22 12:54:25;;;;;;;0.20;0.20;;;;;;;;;;4971723;28;20260;-85
2023/10/22 12:56:50;;;;;;;0.50;0.23;;;;;;;;;;4971985;28;20245;-86
2023/10/22 12:59:16;;;;;;;5.00;0.73;;;;;;;;;;4973311;28;20197;-85
2023/10/22 13:01:41;;;;;;;1.03;0.37;;;;;;;;;;4973120;28;20182;-84
2023/10/22 13:04:06;;;;;;;0.47;0.10;;;;;;;;;;4988008;28;20726;-85
2023/10/22 13:06:31;;;;;;;1.07;0.40;;;;;;;;;;4974132;28;20188;-85
2023/10/22 13:09:02;;;;;;;0.10;0.10;;;;;;;;;;4980062;28;20292;-85
2023/10/22 13:11:31;;;;;;;0.60;0.60;;;;;;;;;;4987848;28;20194;-86
2023/10/22 13:13:56;;;;;;;0.10;0.10;;;;;;;;;;4972605;28;20193;-86
2023/10/22 13:16:21;;;;;;;0.00;0.00;;;;;;;;;;4972670;28;20205;-86
2023/10/22 13:18:49;;;;;;;1.63;0.40;;;;;;;;;;4972787;28;20174;-86
2023/10/22 13:21:14;;;;;;;0.27;0.27;;;;;;;;;;4975986;28;20202;-86
2023/10/22 13:23:40;;;;;;;0.00;0.00;;;;;;;;;;4975467;28;20704;-85
2023/10/22 13:26:05;;;;;;;0.00;0.00;;;;;;;;;;4976758;28;20650;-86
2023/10/22 13:28:30;;;;;;;0.00;0.00;;;;;;;;;;4991576;28;20209;-86
2023/10/22 13:30:55;;;;;;;1.83;1.27;;;;;;;;;;4991722;28;20276;-85
2023/10/22 13:33:21;;;;;;;0.83;0.70;;;;;;;;;;4976407;28;20209;-86
2023/10/22 13:35:48;;;;;;;0.00;0.00;;;;;;;;;;4976584;28;20240;-86
2023/10/22 13:38:14;;;;;;;4.63;0.10;;;;;;;;;;4991620;28;20660;-85
2023/10/22 13:40:42;;;;;;;0.40;0.40;;;;;;;;;;4991704;28;20196;-85
2023/10/22 13:43:07;;;;;;;0.00;0.00;;;;;;;;;;4991141;28;20227;-85
2023/10/22 13:45:34;;;;;;;0.00;0.00;;;;;;;;;;4976416;28;20677;-86
2023/10/22 13:48:00;;;;;;;0.63;0.20;;;;;;;;;;4976442;28;20229;-86
2023/10/22 13:50:25;;;;;;;0.57;0.57;;;;;;;;;;4991376;28;20606;-86
2023/10/22 13:52:51;;;;;;;0.10;0.10;;;;;;;;;;4976048;28;20194;-85
2023/10/22 13:55:16;;;;;;;0.00;0.00;;;;;;;;;;4976389;28;20224;-85
2023/10/22 13:57:41;;;;;;;0.17;0.17;;;;;;;;;;4991398;28;20654;-86
2023/10/22 14:00:09;;;;;;;0.00;0.00;;;;;;;;;;4976302;28;20178;-86
2023/10/22 14:02:43;;;;;;;0.50;0.50;;;;;;;;;;4990847;28;20212;-85
2023/10/22 14:05:09;;;;;;;1.90;0.53;;;;;;;;;;4974670;28;20264;-86
2023/10/22 14:07:40;;;;;;;0.10;0.10;;;;;;;;;;4990774;28;20209;-86
2023/10/22 14:10:06;;;;;;;0.13;0.13;;;;;;;;;;4991071;28;20188;-86
2023/10/22 14:12:35;;;;;;;0.80;0.80;;;;;;;;;;4974469;28;20209;-85
2023/10/22 14:15:00;;;;;;;0.53;0.53;;;;;;;;;;4990196;28;20727;-86
2023/10/22 14:17:25;;;;;;;0.40;0.40;;;;;;;;;;4990528;28;20285;-86
2023/10/22 14:19:54;;;;;;;0.07;0.07;;;;;;;;;;4975793;28;20174;-86
2023/10/22 14:22:19;;;;;;;0.97;0.70;;;;;;;;;;4975556;28;20197;-86
2023/10/22 14:24:45;;;;;;;1.47;0.40;;;;;;;;;;4991433;28;20563;-86
2023/10/22 14:27:10;;;;;;;0.30;0.30;;;;;;;;;;4977910;28;20203;-86
2023/10/22 14:29:35;;;;;;;0.00;0.00;;;;;;;;;;4993465;28;20182;-86
2023/10/22 14:32:03;;;;;;;0.00;0.00;;;;;;;;;;4974995;28;20554;-86
2023/10/22 14:34:29;;;;;;;0.00;0.00;;;;;;;;;;4975082;28;20170;-86
2023/10/22 14:36:55;;;;;;;4.27;1.43;;;;;;;;;;4974426;28;20557;-85